createdAt,value
2019-05-06T00:02:37.626Z,7.05
2019-05-06T00:17:37.837Z,7.12
2019-05-06T00:32:37.968Z,7.17
2019-05-06T00:47:38.390Z,6.79
2019-05-06T01:02:38.510Z,6.38
2019-05-06T01:17:38.746Z,5.78
2019-05-06T01:32:39.034Z,5.18
2019-05-06T01:47:39.355Z,4.82
2019-05-06T02:02:39.541Z,4.29
2019-05-06T02:17:39.862Z,3.76
2019-05-06T02:32:39.995Z,3.61
2019-05-06T02:47:43.042Z,3.14
2019-05-06T03:02:47.719Z,2.87
2019-05-06T03:17:48.817Z,2.56
2019-05-06T03:33:28.207Z,2.31
2019-05-06T03:47:54.451Z,2.27
2019-05-06T04:02:56.902Z,2.27
2019-05-06T04:17:58.396Z,2.46
2019-05-06T04:32:58.661Z,3.15
2019-05-06T04:47:59.044Z,3.62
2019-05-06T05:02:59.615Z,4.44
2019-05-06T05:18:02.802Z,5.21
2019-05-06T05:33:03.456Z,5.94
2019-05-06T05:48:03.689Z,7.16
2019-05-06T06:03:06.768Z,8.19
2019-05-06T06:18:07.143Z,10.04
2019-05-06T06:33:07.302Z,11.36
2019-05-06T06:48:07.540Z,12.45
2019-05-06T07:03:07.683Z,13.39
2019-05-06T07:18:07.800Z,14.68
2019-05-06T07:33:08.014Z,14.47
2019-05-06T07:48:08.210Z,15.14
2019-05-06T08:03:08.463Z,15.07
2019-05-06T08:18:08.635Z,15.75
2019-05-06T08:33:08.850Z,14.92
2019-05-06T08:48:09.043Z,14.46
2019-05-06T09:03:09.283Z,15.74
2019-05-06T09:18:09.463Z,16.49
2019-05-06T09:33:09.701Z,14.80
2019-05-06T09:48:12.637Z,13.79
2019-05-06T10:03:13.140Z,13.75
2019-05-06T10:18:13.605Z,14.77
2019-05-06T10:33:13.401Z,14.18
2019-05-06T10:48:13.504Z,14.83
2019-05-06T11:03:14.972Z,16.76
2019-05-06T11:18:14.845Z,17.26
2019-05-06T11:33:14.952Z,15.43
2019-05-06T11:48:15.123Z,14.86
2019-05-06T12:03:15.314Z,14.46
2019-05-06T12:18:15.441Z,14.06
2019-05-06T12:33:15.631Z,13.91
2019-05-06T12:48:15.811Z,14.88
2019-05-06T13:03:15.996Z,16.46
2019-05-06T13:18:16.119Z,15.87
2019-05-06T13:33:16.513Z,15.06
2019-05-06T13:48:16.424Z,15.97
2019-05-06T14:03:17.628Z,16.71
2019-05-06T14:18:17.799Z,15.50
2019-05-06T14:33:17.976Z,14.33
2019-05-06T14:48:18.141Z,13.60
2019-05-06T15:03:18.336Z,12.92
2019-05-06T15:18:19.017Z,12.92
2019-05-06T15:33:19.167Z,12.35
2019-05-06T15:48:19.350Z,11.90
2019-05-06T16:03:19.511Z,11.44
2019-05-06T16:18:19.818Z,11.24
2019-05-06T16:33:21.915Z,11.07
2019-05-06T16:48:22.748Z,11.03
2019-05-06T17:03:23.200Z,10.85
2019-05-06T17:18:24.167Z,10.73
2019-05-06T17:33:24.213Z,10.41
2019-05-06T17:48:27.568Z,9.72
2019-05-06T18:03:27.703Z,9.11
2019-05-06T18:18:29.020Z,8.91
2019-05-06T18:33:29.222Z,8.48
2019-05-06T18:48:31.673Z,8.07
2019-05-06T19:03:34.694Z,7.85
2019-05-06T19:18:34.869Z,7.68
2019-05-06T19:33:35.072Z,7.40
2019-05-06T19:48:35.213Z,7.03
2019-05-06T20:03:35.382Z,6.92
2019-05-06T20:18:35.605Z,6.85
2019-05-06T20:33:35.819Z,6.81
2019-05-06T20:48:36.137Z,6.77
2019-05-06T21:03:36.351Z,6.48
2019-05-06T21:18:36.485Z,6.34
2019-05-06T21:33:36.766Z,6.30
2019-05-06T21:48:37.058Z,6.38
2019-05-06T22:03:37.356Z,6.51
2019-05-06T22:18:37.405Z,6.64
2019-05-06T22:33:37.673Z,6.79
2019-05-06T22:48:37.811Z,6.85
2019-05-06T23:03:37.971Z,6.85
2019-05-06T23:18:38.188Z,6.94
2019-05-06T23:33:38.435Z,6.84
2019-05-06T23:48:38.718Z,6.89
